Terminal Aerodrome Forecast
Issued by NWS

Home | Current Version | Previous Version | Text Only | Print | Product List | Glossary On
Versions: 1 2 3 4 5 6 7 8 9 10 11 12 13
000
FTAK31 PAJN 281856 AAA
TAFAPG
TAF AMD
PAPG 281856Z 2819/2918 VRB06KT P6SM FEW070 SCT150
     FM291300 VRB04KT 6SM BCFG SCT004 PROB30 2913/2918 3SM -DZ BR
      OVC004
      AMD LTD TO CLD VIS AND WIND 2906/2915=

USA.gov is the U.S. government's official web portal to all federal, state and local government web resources and services.